sensor_id;sensor_type;location;lat;lon;timestamp;temperature;humidity
30288;DHT22;17103;48.316;11.558;2023-08-20T00:02:18;29.80;39.70
30288;DHT22;17103;48.316;11.558;2023-08-20T00:04:46;29.80;39.40
30288;DHT22;17103;48.316;11.558;2023-08-20T00:07:13;29.70;40.20
30288;DHT22;17103;48.316;11.558;2023-08-20T00:09:39;29.70;40.00
30288;DHT22;17103;48.316;11.558;2023-08-20T00:12:05;29.70;40.10
30288;DHT22;17103;48.316;11.558;2023-08-20T00:14:52;29.60;40.10
30288;DHT22;17103;48.316;11.558;2023-08-20T00:17:18;29.60;40.50
30288;DHT22;17103;48.316;11.558;2023-08-20T00:19:45;29.50;40.10
30288;DHT22;17103;48.316;11.558;2023-08-20T00:22:10;29.50;40.10
30288;DHT22;17103;48.316;11.558;2023-08-20T00:24:36;29.50;40.30
30288;DHT22;17103;48.316;11.558;2023-08-20T00:27:02;29.40;40.20
30288;DHT22;17103;48.316;11.558;2023-08-20T00:29:28;29.40;40.40
30288;DHT22;17103;48.316;11.558;2023-08-20T00:31:55;29.40;40.40
30288;DHT22;17103;48.316;11.558;2023-08-20T00:34:22;29.40;40.60
30288;DHT22;17103;48.316;11.558;2023-08-20T00:36:47;29.40;40.60
30288;DHT22;17103;48.316;11.558;2023-08-20T00:39:13;29.40;40.60
30288;DHT22;17103;48.316;11.558;2023-08-20T00:41:41;29.30;40.60
30288;DHT22;17103;48.316;11.558;2023-08-20T00:44:06;29.40;40.70
30288;DHT22;17103;48.316;11.558;2023-08-20T00:46:32;29.30;40.70
30288;DHT22;17103;48.316;11.558;2023-08-20T00:49:01;29.30;40.80
30288;DHT22;17103;48.316;11.558;2023-08-20T00:51:27;29.20;40.80
30288;DHT22;17103;48.316;11.558;2023-08-20T00:53:54;29.30;41.10
30288;DHT22;17103;48.316;11.558;2023-08-20T00:56:21;29.20;41.00
30288;DHT22;17103;48.316;11.558;2023-08-20T00:58:48;29.30;41.20
30288;DHT22;17103;48.316;11.558;2023-08-20T01:01:14;29.10;41.10
30288;DHT22;17103;48.316;11.558;2023-08-20T01:03:39;29.00;41.00
30288;DHT22;17103;48.316;11.558;2023-08-20T01:08:53;29.10;41.50
30288;DHT22;17103;48.316;11.558;2023-08-20T01:11:30;29.10;41.40
30288;DHT22;17103;48.316;11.558;2023-08-20T01:13:59;29.20;41.40
30288;DHT22;17103;48.316;11.558;2023-08-20T01:16:26;29.00;41.20
30288;DHT22;17103;48.316;11.558;2023-08-20T01:18:52;29.10;41.40
30288;DHT22;17103;48.316;11.558;2023-08-20T01:21:42;29.00;41.40
30288;DHT22;17103;48.316;11.558;2023-08-20T01:27:19;29.10;41.80
30288;DHT22;17103;48.316;11.558;2023-08-20T01:29:48;28.80;41.60
30288;DHT22;17103;48.316;11.558;2023-08-20T01:32:16;29.00;41.60
30288;DHT22;17103;48.316;11.558;2023-08-20T01:34:53;28.80;41.60
30288;DHT22;17103;48.316;11.558;2023-08-20T01:37:20;29.00;42.00
30288;DHT22;17103;48.316;11.558;2023-08-20T01:39:47;28.90;41.70
30288;DHT22;17103;48.316;11.558;2023-08-20T01:42:12;28.90;41.80
30288;DHT22;17103;48.316;11.558;2023-08-20T01:44:38;28.80;41.70
30288;DHT22;17103;48.316;11.558;2023-08-20T01:47:03;28.70;41.70
30288;DHT22;17103;48.316;11.558;2023-08-20T01:49:29;28.80;41.80
30288;DHT22;17103;48.316;11.558;2023-08-20T01:51:54;28.80;41.80
30288;DHT22;17103;48.316;11.558;2023-08-20T01:54:20;28.90;42.00
30288;DHT22;17103;48.316;11.558;2023-08-20T01:56:47;28.80;42.00
30288;DHT22;17103;48.316;11.558;2023-08-20T01:59:14;28.80;42.00
30288;DHT22;17103;48.316;11.558;2023-08-20T02:01:41;28.70;42.00
30288;DHT22;17103;48.316;11.558;2023-08-20T02:04:06;28.70;42.20
30288;DHT22;17103;48.316;11.558;2023-08-20T02:06:33;28.50;42.10
30288;DHT22;17103;48.316;11.558;2023-08-20T02:08:59;28.60;42.30
30288;DHT22;17103;48.316;11.558;2023-08-20T02:11:24;28.60;42.40
30288;DHT22;17103;48.316;11.558;2023-08-20T02:13:50;28.50;42.50
30288;DHT22;17103;48.316;11.558;2023-08-20T02:16:17;28.50;42.60
30288;DHT22;17103;48.316;11.558;2023-08-20T02:18:43;28.50;42.80
30288;DHT22;17103;48.316;11.558;2023-08-20T02:21:08;28.40;42.60
30288;DHT22;17103;48.316;11.558;2023-08-20T02:23:34;28.40;42.70
30288;DHT22;17103;48.316;11.558;2023-08-20T02:25:59;28.30;42.80
30288;DHT22;17103;48.316;11.558;2023-08-20T02:28:26;28.30;42.80
30288;DHT22;17103;48.316;11.558;2023-08-20T02:30:54;28.20;42.80
30288;DHT22;17103;48.316;11.558;2023-08-20T02:33:28;28.00;42.90
30288;DHT22;17103;48.316;11.558;2023-08-20T02:36:02;28.20;43.20
30288;DHT22;17103;48.316;11.558;2023-08-20T02:38:28;28.20;43.30
30288;DHT22;17103;48.316;11.558;2023-08-20T02:40:54;28.40;43.10
30288;DHT22;17103;48.316;11.558;2023-08-20T02:43:23;28.50;43.30
30288;DHT22;17103;48.316;11.558;2023-08-20T02:45:50;28.20;43.20
30288;DHT22;17103;48.316;11.558;2023-08-20T02:48:20;28.30;43.40
30288;DHT22;17103;48.316;11.558;2023-08-20T02:50:50;28.00;43.20
30288;DHT22;17103;48.316;11.558;2023-08-20T02:53:17;28.00;43.20
30288;DHT22;17103;48.316;11.558;2023-08-20T02:55:45;27.90;43.20
30288;DHT22;17103;48.316;11.558;2023-08-20T02:58:15;27.60;43.00
30288;DHT22;17103;48.316;11.558;2023-08-20T03:00:41;28.00;43.40
30288;DHT22;17103;48.316;11.558;2023-08-20T03:03:07;27.60;43.00
30288;DHT22;17103;48.316;11.558;2023-08-20T03:05:34;27.70;43.20
30288;DHT22;17103;48.316;11.558;2023-08-20T03:08:02;27.80;43.30
30288;DHT22;17103;48.316;11.558;2023-08-20T03:10:31;27.90;43.70
30288;DHT22;17103;48.316;11.558;2023-08-20T03:12:59;27.70;43.30
30288;DHT22;17103;48.316;11.558;2023-08-20T03:15:25;27.90;43.60
30288;DHT22;17103;48.316;11.558;2023-08-20T03:17:50;27.90;43.60
30288;DHT22;17103;48.316;11.558;2023-08-20T03:20:16;27.70;43.50
30288;DHT22;17103;48.316;11.558;2023-08-20T03:22:42;27.70;43.50
30288;DHT22;17103;48.316;11.558;2023-08-20T03:25:08;27.80;43.70
30288;DHT22;17103;48.316;11.558;2023-08-20T03:27:34;27.70;43.70
30288;DHT22;17103;48.316;11.558;2023-08-20T03:30:00;27.50;43.70
30288;DHT22;17103;48.316;11.558;2023-08-20T03:32:25;27.70;43.70
30288;DHT22;17103;48.316;11.558;2023-08-20T04:04:14;27.30;44.20
30288;DHT22;17103;48.316;11.558;2023-08-20T04:06:40;27.30;44.40
30288;DHT22;17103;48.316;11.558;2023-08-20T04:09:06;27.20;44.40
30288;DHT22;17103;48.316;11.558;2023-08-20T04:11:32;27.20;44.60
30288;DHT22;17103;48.316;11.558;2023-08-20T04:13:58;27.10;44.80
30288;DHT22;17103;48.316;11.558;2023-08-20T04:16:24;27.10;45.00
30288;DHT22;17103;48.316;11.558;2023-08-20T04:18:49;27.00;44.90
30288;DHT22;17103;48.316;11.558;2023-08-20T04:21:15;27.00;45.00
30288;DHT22;17103;48.316;11.558;2023-08-20T04:23:40;26.80;45.10
30288;DHT22;17103;48.316;11.558;2023-08-20T04:26:07;26.80;45.30
30288;DHT22;17103;48.316;11.558;2023-08-20T04:28:33;26.70;45.40
30288;DHT22;17103;48.316;11.558;2023-08-20T04:30:58;26.70;45.40
30288;DHT22;17103;48.316;11.558;2023-08-20T04:33:26;26.70;45.50
30288;DHT22;17103;48.316;11.558;2023-08-20T04:35:51;26.70;45.70
30288;DHT22;17103;48.316;11.558;2023-08-20T04:38:17;26.70;45.80
30288;DHT22;17103;48.316;11.558;2023-08-20T04:40:46;26.70;45.90
30288;DHT22;17103;48.316;11.558;2023-08-20T04:43:13;26.60;46.00
30288;DHT22;17103;48.316;11.558;2023-08-20T04:45:39;26.60;46.40
30288;DHT22;17103;48.316;11.558;2023-08-20T04:48:04;26.60;45.90
30288;DHT22;17103;48.316;11.558;2023-08-20T04:50:30;26.60;46.00
30288;DHT22;17103;48.316;11.558;2023-08-20T04:52:57;26.60;46.00
30288;DHT22;17103;48.316;11.558;2023-08-20T04:55:25;26.60;45.90
30288;DHT22;17103;48.316;11.558;2023-08-20T04:57:50;26.60;46.60
30288;DHT22;17103;48.316;11.558;2023-08-20T05:00:16;26.60;46.20
30288;DHT22;17103;48.316;11.558;2023-08-20T05:02:42;26.60;46.20
30288;DHT22;17103;48.316;11.558;2023-08-20T05:05:07;26.50;46.20
30288;DHT22;17103;48.316;11.558;2023-08-20T05:07:33;26.60;46.50
30288;DHT22;17103;48.316;11.558;2023-08-20T05:09:59;26.60;46.30
30288;DHT22;17103;48.316;11.558;2023-08-20T05:12:24;26.60;46.30
30288;DHT22;17103;48.316;11.558;2023-08-20T05:14:50;26.60;46.40
30288;DHT22;17103;48.316;11.558;2023-08-20T05:17:15;26.60;46.40
30288;DHT22;17103;48.316;11.558;2023-08-20T05:19:41;26.70;46.50
30288;DHT22;17103;48.316;11.558;2023-08-20T05:22:07;26.60;46.40
30288;DHT22;17103;48.316;11.558;2023-08-20T05:24:33;26.60;46.50
30288;DHT22;17103;48.316;11.558;2023-08-20T05:27:09;26.60;46.50
30288;DHT22;17103;48.316;11.558;2023-08-20T05:29:36;26.60;46.80
30288;DHT22;17103;48.316;11.558;2023-08-20T05:32:02;26.60;46.50
30288;DHT22;17103;48.316;11.558;2023-08-20T05:34:28;26.60;46.70
30288;DHT22;17103;48.316;11.558;2023-08-20T05:36:54;26.70;46.80
30288;DHT22;17103;48.316;11.558;2023-08-20T05:39:19;26.70;46.70
30288;DHT22;17103;48.316;11.558;2023-08-20T05:41:45;26.70;46.60
30288;DHT22;17103;48.316;11.558;2023-08-20T05:44:11;26.70;46.70
30288;DHT22;17103;48.316;11.558;2023-08-20T05:46:36;26.70;46.70
30288;DHT22;17103;48.316;11.558;2023-08-20T05:49:02;26.70;46.80
30288;DHT22;17103;48.316;11.558;2023-08-20T05:51:28;26.80;47.00
30288;DHT22;17103;48.316;11.558;2023-08-20T05:53:53;26.80;46.90
30288;DHT22;17103;48.316;11.558;2023-08-20T05:56:19;26.80;46.90
30288;DHT22;17103;48.316;11.558;2023-08-20T05:58:44;26.90;46.90
30288;DHT22;17103;48.316;11.558;2023-08-20T06:01:13;26.90;46.90
30288;DHT22;17103;48.316;11.558;2023-08-20T06:03:39;27.00;46.90
30288;DHT22;17103;48.316;11.558;2023-08-20T06:06:04;27.00;46.90
30288;DHT22;17103;48.316;11.558;2023-08-20T06:08:30;27.00;46.70
30288;DHT22;17103;48.316;11.558;2023-08-20T06:10:55;27.00;46.70
30288;DHT22;17103;48.316;11.558;2023-08-20T06:13:21;27.00;46.70
30288;DHT22;17103;48.316;11.558;2023-08-20T06:15:47;27.00;47.30
30288;DHT22;17103;48.316;11.558;2023-08-20T06:18:13;27.10;47.30
30288;DHT22;17103;48.316;11.558;2023-08-20T06:20:38;27.10;46.70
30288;DHT22;17103;48.316;11.558;2023-08-20T06:23:04;27.10;46.60
30288;DHT22;17103;48.316;11.558;2023-08-20T06:25:30;27.20;46.70
30288;DHT22;17103;48.316;11.558;2023-08-20T06:27:55;27.20;46.80
30288;DHT22;17103;48.316;11.558;2023-08-20T06:30:21;27.30;46.90
30288;DHT22;17103;48.316;11.558;2023-08-20T06:32:46;27.30;46.80
30288;DHT22;17103;48.316;11.558;2023-08-20T06:35:12;27.30;46.80
30288;DHT22;17103;48.316;11.558;2023-08-20T06:37:41;27.40;46.90
30288;DHT22;17103;48.316;11.558;2023-08-20T06:40:07;27.40;47.40
30288;DHT22;17103;48.316;11.558;2023-08-20T06:42:33;27.40;46.70
30288;DHT22;17103;48.316;11.558;2023-08-20T06:44:59;27.50;46.70
30288;DHT22;17103;48.316;11.558;2023-08-20T06:47:28;27.50;47.00
30288;DHT22;17103;48.316;11.558;2023-08-20T06:49:53;27.60;47.00
30288;DHT22;17103;48.316;11.558;2023-08-20T06:52:19;27.60;46.80
30288;DHT22;17103;48.316;11.558;2023-08-20T06:54:45;27.70;46.50
30288;DHT22;17103;48.316;11.558;2023-08-20T06:57:10;27.70;46.40
30288;DHT22;17103;48.316;11.558;2023-08-20T06:59:36;27.80;46.40
30288;DHT22;17103;48.316;11.558;2023-08-20T07:02:02;27.80;46.30
30288;DHT22;17103;48.316;11.558;2023-08-20T07:04:29;27.90;46.00
30288;DHT22;17103;48.316;11.558;2023-08-20T07:06:54;27.80;45.90
30288;DHT22;17103;48.316;11.558;2023-08-20T07:09:20;27.90;45.90
30288;DHT22;17103;48.316;11.558;2023-08-20T07:11:46;28.00;46.20
30288;DHT22;17103;48.316;11.558;2023-08-20T07:14:11;28.00;46.40
30288;DHT22;17103;48.316;11.558;2023-08-20T07:16:37;28.10;46.40
30288;DHT22;17103;48.316;11.558;2023-08-20T07:19:03;28.10;46.40
30288;DHT22;17103;48.316;11.558;2023-08-20T07:21:28;28.20;46.90
30288;DHT22;17103;48.316;11.558;2023-08-20T07:23:54;28.30;46.20
30288;DHT22;17103;48.316;11.558;2023-08-20T07:26:20;28.40;45.70
30288;DHT22;17103;48.316;11.558;2023-08-20T07:28:45;28.40;45.50
30288;DHT22;17103;48.316;11.558;2023-08-20T07:31:30;28.50;45.30
30288;DHT22;17103;48.316;11.558;2023-08-20T07:33:56;28.60;45.20
30288;DHT22;17103;48.316;11.558;2023-08-20T07:36:24;28.80;45.10
30288;DHT22;17103;48.316;11.558;2023-08-20T07:38:51;28.80;45.30
30288;DHT22;17103;48.316;11.558;2023-08-20T07:41:17;28.80;45.00
30288;DHT22;17103;48.316;11.558;2023-08-20T07:43:43;28.90;45.10
30288;DHT22;17103;48.316;11.558;2023-08-20T07:46:09;29.00;45.00
30288;DHT22;17103;48.316;11.558;2023-08-20T07:48:49;29.10;45.10
30288;DHT22;17103;48.316;11.558;2023-08-20T07:51:16;29.20;45.00
30288;DHT22;17103;48.316;11.558;2023-08-20T07:53:42;29.20;44.90
30288;DHT22;17103;48.316;11.558;2023-08-20T07:56:07;29.30;44.80
30288;DHT22;17103;48.316;11.558;2023-08-20T07:58:34;29.40;44.90
30288;DHT22;17103;48.316;11.558;2023-08-20T08:01:00;29.40;44.80
30288;DHT22;17103;48.316;11.558;2023-08-20T08:03:26;29.60;44.90
30288;DHT22;17103;48.316;11.558;2023-08-20T08:05:52;29.70;44.90
30288;DHT22;17103;48.316;11.558;2023-08-20T08:08:21;29.80;44.60
30288;DHT22;17103;48.316;11.558;2023-08-20T08:10:48;29.80;44.60
30288;DHT22;17103;48.316;11.558;2023-08-20T08:13:20;29.90;44.40
30288;DHT22;17103;48.316;11.558;2023-08-20T08:15:46;30.00;44.00
30288;DHT22;17103;48.316;11.558;2023-08-20T08:18:11;30.10;44.20
30288;DHT22;17103;48.316;11.558;2023-08-20T08:20:38;30.20;43.90
30288;DHT22;17103;48.316;11.558;2023-08-20T08:23:04;30.30;43.40
30288;DHT22;17103;48.316;11.558;2023-08-20T08:25:30;30.40;43.10
30288;DHT22;17103;48.316;11.558;2023-08-20T08:27:55;30.50;42.90
30288;DHT22;17103;48.316;11.558;2023-08-20T08:30:21;30.60;42.90
30288;DHT22;17103;48.316;11.558;2023-08-20T08:32:47;30.70;42.80
30288;DHT22;17103;48.316;11.558;2023-08-20T08:35:12;30.70;42.50
30288;DHT22;17103;48.316;11.558;2023-08-20T08:37:38;30.80;42.40
30288;DHT22;17103;48.316;11.558;2023-08-20T08:40:04;30.80;42.30
30288;DHT22;17103;48.316;11.558;2023-08-20T08:42:33;31.00;42.60
30288;DHT22;17103;48.316;11.558;2023-08-20T08:45:02;31.00;42.20
30288;DHT22;17103;48.316;11.558;2023-08-20T08:47:29;31.10;42.70
30288;DHT22;17103;48.316;11.558;2023-08-20T08:49:55;31.10;42.20
30288;DHT22;17103;48.316;11.558;2023-08-20T08:52:25;31.30;42.10
30288;DHT22;17103;48.316;11.558;2023-08-20T08:54:52;31.40;42.10
30288;DHT22;17103;48.316;11.558;2023-08-20T08:57:18;31.40;41.90
30288;DHT22;17103;48.316;11.558;2023-08-20T08:59:44;31.50;41.50
30288;DHT22;17103;48.316;11.558;2023-08-20T09:02:11;31.60;41.30
30288;DHT22;17103;48.316;11.558;2023-08-20T09:04:41;31.60;40.60
30288;DHT22;17103;48.316;11.558;2023-08-20T09:07:11;31.70;40.40
30288;DHT22;17103;48.316;11.558;2023-08-20T09:09:42;31.80;40.40
30288;DHT22;17103;48.316;11.558;2023-08-20T09:12:18;31.80;40.20
30288;DHT22;17103;48.316;11.558;2023-08-20T09:14:49;31.90;40.10
30288;DHT22;17103;48.316;11.558;2023-08-20T09:17:16;32.00;40.00
30288;DHT22;17103;48.316;11.558;2023-08-20T09:19:43;32.10;40.20
30288;DHT22;17103;48.316;11.558;2023-08-20T09:22:14;32.20;40.00
30288;DHT22;17103;48.316;11.558;2023-08-20T09:24:51;32.20;40.00
30288;DHT22;17103;48.316;11.558;2023-08-20T09:27:17;32.40;40.20
30288;DHT22;17103;48.316;11.558;2023-08-20T09:29:47;32.40;39.60
30288;DHT22;17103;48.316;11.558;2023-08-20T09:34:44;32.60;39.30
30288;DHT22;17103;48.316;11.558;2023-08-20T09:37:10;32.70;39.70
30288;DHT22;17103;48.316;11.558;2023-08-20T09:39:38;32.80;39.10
30288;DHT22;17103;48.316;11.558;2023-08-20T09:42:05;32.80;38.50
30288;DHT22;17103;48.316;11.558;2023-08-20T09:44:38;32.90;38.60
30288;DHT22;17103;48.316;11.558;2023-08-20T09:47:09;32.90;38.00
30288;DHT22;17103;48.316;11.558;2023-08-20T09:52:10;33.10;37.60
30288;DHT22;17103;48.316;11.558;2023-08-20T09:54:42;33.20;37.90
30288;DHT22;17103;48.316;11.558;2023-08-20T09:59:55;33.40;37.50
30288;DHT22;17103;48.316;11.558;2023-08-20T10:02:22;33.40;38.10
30288;DHT22;17103;48.316;11.558;2023-08-20T10:04:49;33.50;38.10
30288;DHT22;17103;48.316;11.558;2023-08-20T10:07:15;33.60;38.20
30288;DHT22;17103;48.316;11.558;2023-08-20T10:09:42;33.60;37.90
30288;DHT22;17103;48.316;11.558;2023-08-20T10:12:14;33.70;38.20
30288;DHT22;17103;48.316;11.558;2023-08-20T10:14:40;33.80;38.00
30288;DHT22;17103;48.316;11.558;2023-08-20T10:17:10;33.80;38.10
30288;DHT22;17103;48.316;11.558;2023-08-20T10:19:37;33.90;38.30
30288;DHT22;17103;48.316;11.558;2023-08-20T10:22:04;34.10;38.20
30288;DHT22;17103;48.316;11.558;2023-08-20T10:27:25;34.10;38.00
30288;DHT22;17103;48.316;11.558;2023-08-20T10:29:53;34.30;38.20
30288;DHT22;17103;48.316;11.558;2023-08-20T10:32:19;34.30;38.20
30288;DHT22;17103;48.316;11.558;2023-08-20T10:34:50;34.30;38.00
30288;DHT22;17103;48.316;11.558;2023-08-20T10:37:26;34.50;37.30
30288;DHT22;17103;48.316;11.558;2023-08-20T10:39:56;34.40;37.10
30288;DHT22;17103;48.316;11.558;2023-08-20T10:42:27;34.60;37.90
30288;DHT22;17103;48.316;11.558;2023-08-20T10:45:01;34.60;37.60
30288;DHT22;17103;48.316;11.558;2023-08-20T10:50:09;34.80;35.90
30288;DHT22;17103;48.316;11.558;2023-08-20T10:52:47;34.80;36.60
30288;DHT22;17103;48.316;11.558;2023-08-20T10:55:13;34.90;36.40
30288;DHT22;17103;48.316;11.558;2023-08-20T10:57:40;34.90;36.20
30288;DHT22;17103;48.316;11.558;2023-08-20T11:00:07;34.90;36.30
30288;DHT22;17103;48.316;11.558;2023-08-20T11:02:40;35.00;36.30
30288;DHT22;17103;48.316;11.558;2023-08-20T11:05:17;35.10;36.30
30288;DHT22;17103;48.316;11.558;2023-08-20T11:07:45;35.10;35.80
30288;DHT22;17103;48.316;11.558;2023-08-20T11:10:16;35.20;35.90
30288;DHT22;17103;48.316;11.558;2023-08-20T11:12:43;35.20;36.10
30288;DHT22;17103;48.316;11.558;2023-08-20T11:15:10;35.30;35.80
30288;DHT22;17103;48.316;11.558;2023-08-20T11:17:41;35.30;36.10
30288;DHT22;17103;48.316;11.558;2023-08-20T11:20:07;35.40;35.40
30288;DHT22;17103;48.316;11.558;2023-08-20T11:22:33;35.50;36.20
30288;DHT22;17103;48.316;11.558;2023-08-20T11:25:00;35.60;35.80
30288;DHT22;17103;48.316;11.558;2023-08-20T11:27:28;35.60;35.90
30288;DHT22;17103;48.316;11.558;2023-08-20T11:29:54;35.60;35.10
30288;DHT22;17103;48.316;11.558;2023-08-20T11:32:23;35.70;35.50
30288;DHT22;17103;48.316;11.558;2023-08-20T11:34:49;35.70;35.40
30288;DHT22;17103;48.316;11.558;2023-08-20T11:37:20;35.80;35.40
30288;DHT22;17103;48.316;11.558;2023-08-20T11:39:50;35.90;34.10
30288;DHT22;17103;48.316;11.558;2023-08-20T11:42:16;35.90;33.60
30288;DHT22;17103;48.316;11.558;2023-08-20T11:44:46;36.00;34.10
30288;DHT22;17103;48.316;11.558;2023-08-20T11:47:16;36.00;34.00
30288;DHT22;17103;48.316;11.558;2023-08-20T11:49:41;36.10;33.50
30288;DHT22;17103;48.316;11.558;2023-08-20T11:52:07;36.10;33.20
30288;DHT22;17103;48.316;11.558;2023-08-20T11:54:33;36.20;32.70
30288;DHT22;17103;48.316;11.558;2023-08-20T11:57:12;36.20;33.60
30288;DHT22;17103;48.316;11.558;2023-08-20T12:02:53;36.30;31.70
30288;DHT22;17103;48.316;11.558;2023-08-20T12:05:20;36.30;32.20
30288;DHT22;17103;48.316;11.558;2023-08-20T12:07:55;36.40;33.10
30288;DHT22;17103;48.316;11.558;2023-08-20T12:10:22;36.40;32.90
30288;DHT22;17103;48.316;11.558;2023-08-20T12:12:49;36.40;32.00
30288;DHT22;17103;48.316;11.558;2023-08-20T12:15:14;36.50;31.20
30288;DHT22;17103;48.316;11.558;2023-08-20T12:17:40;36.60;31.80
30288;DHT22;17103;48.316;11.558;2023-08-20T12:20:06;36.60;32.80
30288;DHT22;17103;48.316;11.558;2023-08-20T12:22:40;36.70;32.10
30288;DHT22;17103;48.316;11.558;2023-08-20T12:25:06;36.70;31.50
30288;DHT22;17103;48.316;11.558;2023-08-20T12:27:42;36.80;31.10
30288;DHT22;17103;48.316;11.558;2023-08-20T12:30:08;36.80;31.20
30288;DHT22;17103;48.316;11.558;2023-08-20T12:32:34;36.90;32.00
30288;DHT22;17103;48.316;11.558;2023-08-20T12:34:59;37.00;31.10
30288;DHT22;17103;48.316;11.558;2023-08-20T12:37:25;37.10;30.50
30288;DHT22;17103;48.316;11.558;2023-08-20T12:39:51;37.10;30.80
30288;DHT22;17103;48.316;11.558;2023-08-20T12:42:16;37.10;31.10
30288;DHT22;17103;48.316;11.558;2023-08-20T12:44:43;37.20;31.70
30288;DHT22;17103;48.316;11.558;2023-08-20T12:47:08;37.30;32.10
30288;DHT22;17103;48.316;11.558;2023-08-20T12:49:34;37.30;32.30
30288;DHT22;17103;48.316;11.558;2023-08-20T12:51:59;37.40;31.80
30288;DHT22;17103;48.316;11.558;2023-08-20T12:54:26;37.50;31.70
30288;DHT22;17103;48.316;11.558;2023-08-20T12:56:52;37.30;31.80
30288;DHT22;17103;48.316;11.558;2023-08-20T12:59:17;37.60;32.10
30288;DHT22;17103;48.316;11.558;2023-08-20T13:01:43;37.70;31.60
30288;DHT22;17103;48.316;11.558;2023-08-20T13:04:09;37.80;31.00
30288;DHT22;17103;48.316;11.558;2023-08-20T13:06:36;37.90;30.60
30288;DHT22;17103;48.316;11.558;2023-08-20T13:09:02;38.00;31.00
30288;DHT22;17103;48.316;11.558;2023-08-20T13:11:29;38.10;31.60
30288;DHT22;17103;48.316;11.558;2023-08-20T13:13:56;38.20;31.50
30288;DHT22;17103;48.316;11.558;2023-08-20T13:16:23;38.20;30.70
30288;DHT22;17103;48.316;11.558;2023-08-20T13:18:49;38.30;30.60
30288;DHT22;17103;48.316;11.558;2023-08-20T13:21:14;38.40;30.50
30288;DHT22;17103;48.316;11.558;2023-08-20T13:23:40;38.50;31.10
30288;DHT22;17103;48.316;11.558;2023-08-20T13:26:06;38.60;30.80
30288;DHT22;17103;48.316;11.558;2023-08-20T13:28:32;38.70;30.60
30288;DHT22;17103;48.316;11.558;2023-08-20T13:30:58;38.70;30.70
30288;DHT22;17103;48.316;11.558;2023-08-20T13:33:23;38.80;30.80
30288;DHT22;17103;48.316;11.558;2023-08-20T13:36:01;38.90;30.90
30288;DHT22;17103;48.316;11.558;2023-08-20T13:38:27;39.00;30.80
30288;DHT22;17103;48.316;11.558;2023-08-20T13:40:53;39.10;31.10
30288;DHT22;17103;48.316;11.558;2023-08-20T13:43:19;39.20;30.60
30288;DHT22;17103;48.316;11.558;2023-08-20T13:45:47;39.40;30.40
30288;DHT22;17103;48.316;11.558;2023-08-20T13:48:12;39.50;30.30
30288;DHT22;17103;48.316;11.558;2023-08-20T13:50:38;39.60;29.90
30288;DHT22;17103;48.316;11.558;2023-08-20T13:53:04;39.60;30.30
30288;DHT22;17103;48.316;11.558;2023-08-20T13:55:29;39.70;30.40
30288;DHT22;17103;48.316;11.558;2023-08-20T13:57:56;39.80;30.80
30288;DHT22;17103;48.316;11.558;2023-08-20T14:00:22;39.90;30.90
30288;DHT22;17103;48.316;11.558;2023-08-20T14:02:48;40.00;30.40
30288;DHT22;17103;48.316;11.558;2023-08-20T14:05:13;40.10;30.00
30288;DHT22;17103;48.316;11.558;2023-08-20T14:07:48;40.10;30.30
30288;DHT22;17103;48.316;11.558;2023-08-20T14:10:14;40.20;30.30
30288;DHT22;17103;48.316;11.558;2023-08-20T14:12:40;40.40;29.80
30288;DHT22;17103;48.316;11.558;2023-08-20T14:15:06;40.40;29.60
30288;DHT22;17103;48.316;11.558;2023-08-20T14:17:32;40.60;29.60
30288;DHT22;17103;48.316;11.558;2023-08-20T14:19:58;40.60;29.60
30288;DHT22;17103;48.316;11.558;2023-08-20T14:22:25;40.70;29.60
30288;DHT22;17103;48.316;11.558;2023-08-20T14:24:51;40.70;29.50
30288;DHT22;17103;48.316;11.558;2023-08-20T14:27:17;40.90;29.60
30288;DHT22;17103;48.316;11.558;2023-08-20T14:29:44;40.90;29.30
30288;DHT22;17103;48.316;11.558;2023-08-20T14:32:09;41.00;29.00
30288;DHT22;17103;48.316;11.558;2023-08-20T14:34:35;41.00;29.00
30288;DHT22;17103;48.316;11.558;2023-08-20T14:37:01;41.10;29.00
30288;DHT22;17103;48.316;11.558;2023-08-20T14:39:26;41.20;28.60
30288;DHT22;17103;48.316;11.558;2023-08-20T14:41:52;41.20;28.60
30288;DHT22;17103;48.316;11.558;2023-08-20T14:44:25;41.30;28.70
30288;DHT22;17103;48.316;11.558;2023-08-20T14:46:53;41.40;29.10
30288;DHT22;17103;48.316;11.558;2023-08-20T14:49:25;41.50;29.70
30288;DHT22;17103;48.316;11.558;2023-08-20T14:51:52;41.60;29.50
30288;DHT22;17103;48.316;11.558;2023-08-20T14:54:18;41.60;29.70
30288;DHT22;17103;48.316;11.558;2023-08-20T14:56:44;41.70;28.90
30288;DHT22;17103;48.316;11.558;2023-08-20T14:59:10;41.80;28.80
30288;DHT22;17103;48.316;11.558;2023-08-20T15:01:36;41.80;28.40
30288;DHT22;17103;48.316;11.558;2023-08-20T15:04:02;41.90;28.90
30288;DHT22;17103;48.316;11.558;2023-08-20T15:06:27;42.00;28.30
30288;DHT22;17103;48.316;11.558;2023-08-20T15:08:53;42.00;28.70
30288;DHT22;17103;48.316;11.558;2023-08-20T15:11:19;42.10;29.00
30288;DHT22;17103;48.316;11.558;2023-08-20T15:13:44;42.20;28.50
30288;DHT22;17103;48.316;11.558;2023-08-20T15:16:10;42.30;28.70
30288;DHT22;17103;48.316;11.558;2023-08-20T15:18:36;42.30;29.00
30288;DHT22;17103;48.316;11.558;2023-08-20T15:21:01;42.30;28.60
30288;DHT22;17103;48.316;11.558;2023-08-20T15:23:28;42.50;29.20
30288;DHT22;17103;48.316;11.558;2023-08-20T15:25:55;42.60;29.10
30288;DHT22;17103;48.316;11.558;2023-08-20T15:28:22;42.60;28.30
30288;DHT22;17103;48.316;11.558;2023-08-20T15:30:52;42.60;28.10
30288;DHT22;17103;48.316;11.558;2023-08-20T15:33:18;42.70;28.90
30288;DHT22;17103;48.316;11.558;2023-08-20T15:35:45;42.80;29.30
30288;DHT22;17103;48.316;11.558;2023-08-20T15:38:11;42.80;29.10
30288;DHT22;17103;48.316;11.558;2023-08-20T15:40:40;43.00;28.60
30288;DHT22;17103;48.316;11.558;2023-08-20T15:43:06;43.00;28.70
30288;DHT22;17103;48.316;11.558;2023-08-20T15:45:32;43.10;29.30
30288;DHT22;17103;48.316;11.558;2023-08-20T15:48:00;43.20;28.90
30288;DHT22;17103;48.316;11.558;2023-08-20T15:50:25;43.30;28.40
30288;DHT22;17103;48.316;11.558;2023-08-20T15:52:53;43.50;28.70
30288;DHT22;17103;48.316;11.558;2023-08-20T15:55:19;43.60;29.00
30288;DHT22;17103;48.316;11.558;2023-08-20T15:57:49;43.70;29.00
30288;DHT22;17103;48.316;11.558;2023-08-20T16:00:15;43.80;27.70
30288;DHT22;17103;48.316;11.558;2023-08-20T16:02:45;44.00;28.00
30288;DHT22;17103;48.316;11.558;2023-08-20T16:05:11;44.10;27.70
30288;DHT22;17103;48.316;11.558;2023-08-20T16:07:38;44.20;28.20